createdAt,value
2018-12-30T00:01:52.275Z,2.00
2018-12-30T00:04:33.052Z,2.00
2018-12-30T00:07:13.777Z,2.00
2018-12-30T00:09:54.397Z,2.00
2018-12-30T00:12:35.234Z,1.90
2018-12-30T00:15:16.345Z,1.90
2018-12-30T00:17:57.348Z,2.00
2018-12-30T00:20:38.829Z,2.00
2018-12-30T00:23:20.386Z,1.90
2018-12-30T00:26:01.301Z,2.00
2018-12-30T00:28:42.260Z,1.90
2018-12-30T00:31:22.811Z,2.00
2018-12-30T00:34:03.453Z,2.00
2018-12-30T00:36:44.185Z,2.00
2018-12-30T00:39:25.133Z,2.00
2018-12-30T00:42:05.684Z,2.00
2018-12-30T00:44:46.569Z,2.20
2018-12-30T00:47:27.020Z,2.10
2018-12-30T00:50:07.602Z,2.10
2018-12-30T00:52:48.660Z,2.00
2018-12-30T00:55:29.053Z,2.20
2018-12-30T00:58:09.945Z,2.20
2018-12-30T01:00:50.853Z,2.30
2018-12-30T01:03:31.318Z,2.60
2018-12-30T01:06:12.225Z,3.10
2018-12-30T01:08:52.733Z,3.40
2018-12-30T01:11:33.565Z,3.60
2018-12-30T01:14:13.921Z,3.80
2018-12-30T01:16:54.632Z,3.80
2018-12-30T01:19:23.358Z,3.80
2018-12-30T01:22:11.402Z,3.80
2018-12-30T01:24:59.236Z,3.80
2018-12-30T01:27:47.296Z,3.70
2018-12-30T01:30:35.069Z,3.80
2018-12-30T01:33:22.877Z,3.90
2018-12-30T01:36:10.710Z,3.90
2018-12-30T01:38:51.757Z,3.90
2018-12-30T01:41:32.879Z,3.90
2018-12-30T01:44:14.638Z,3.90
2018-12-30T01:46:55.408Z,3.80
2018-12-30T01:49:36.508Z,3.80
2018-12-30T01:52:17.159Z,3.80
2018-12-30T01:54:58.382Z,3.80
2018-12-30T01:57:39.464Z,3.80
2018-12-30T02:00:20.536Z,3.90
2018-12-30T02:03:01.277Z,3.80
2018-12-30T02:05:42.033Z,3.80
2018-12-30T02:08:22.609Z,3.80
2018-12-30T02:14:02.433Z,3.70
2018-12-30T02:16:43.387Z,3.70
2018-12-30T02:19:24.172Z,3.70
2018-12-30T02:22:05.049Z,3.70
2018-12-30T02:24:45.861Z,3.70
2018-12-30T02:30:38.938Z,3.80
2018-12-30T02:39:31.173Z,3.80
2018-12-30T02:42:11.356Z,3.80
2018-12-30T02:44:52.369Z,3.80
2018-12-30T02:47:33.646Z,3.80
2018-12-30T02:50:14.345Z,3.90
2018-12-30T02:52:55.401Z,3.90
2018-12-30T02:55:36.393Z,4.00
2018-12-30T02:58:17.434Z,3.80
2018-12-30T03:00:58.068Z,3.80
2018-12-30T03:03:38.915Z,3.80
2018-12-30T03:06:19.682Z,3.80
2018-12-30T03:08:59.945Z,3.80
2018-12-30T03:11:40.553Z,3.80
2018-12-30T03:14:21.398Z,3.80
2018-12-30T03:17:01.962Z,3.70
2018-12-30T03:19:42.393Z,3.80
2018-12-30T03:22:23.142Z,3.80
2018-12-30T03:25:03.753Z,3.90
2018-12-30T03:30:43.442Z,3.90
2018-12-30T03:33:24.090Z,3.90
2018-12-30T03:36:05.319Z,3.80
2018-12-30T03:38:46.302Z,3.90
2018-12-30T03:41:26.919Z,3.90
2018-12-30T03:44:07.993Z,3.90
2018-12-30T03:46:49.275Z,3.90
2018-12-30T03:49:29.656Z,3.90
2018-12-30T03:52:10.377Z,3.90
2018-12-30T03:54:51.010Z,3.90
2018-12-30T03:57:31.874Z,3.80
2018-12-30T04:00:12.336Z,3.90
2018-12-30T04:05:52.898Z,3.10
2018-12-30T04:08:33.358Z,3.90
2018-12-30T04:11:13.874Z,3.80
2018-12-30T04:13:54.406Z,3.80
2018-12-30T04:16:35.003Z,3.90
2018-12-30T04:22:29.047Z,3.80
2018-12-30T04:28:22.197Z,3.90
2018-12-30T04:31:02.867Z,3.80
2018-12-30T04:36:42.806Z,3.80
2018-12-30T04:39:23.220Z,3.70
2018-12-30T04:42:03.952Z,3.80
2018-12-30T04:44:44.483Z,3.80
2018-12-30T04:47:25.241Z,3.80
2018-12-30T04:50:06.151Z,3.70
2018-12-30T04:52:50.126Z,3.60
2018-12-30T04:58:43.585Z,3.60
2018-12-30T05:01:24.337Z,3.70
2018-12-30T05:04:05.117Z,3.70
2018-12-30T05:06:45.846Z,3.60
2018-12-30T05:09:26.539Z,3.70
2018-12-30T05:12:07.281Z,3.60
2018-12-30T05:14:47.866Z,3.60
2018-12-30T05:17:28.589Z,3.60
2018-12-30T05:20:09.403Z,3.50
2018-12-30T05:25:48.672Z,3.60
2018-12-30T05:28:29.442Z,3.60
2018-12-30T05:31:10.277Z,3.60
2018-12-30T05:33:51.286Z,3.60
2018-12-30T05:36:31.889Z,3.60
2018-12-30T05:39:12.937Z,3.50
2018-12-30T05:41:53.583Z,3.50
2018-12-30T05:44:34.397Z,3.50
2018-12-30T05:47:14.850Z,3.50
2018-12-30T05:52:54.307Z,3.90
2018-12-30T05:55:35.241Z,3.60
2018-12-30T05:58:16.094Z,3.50
2018-12-30T06:00:57.110Z,3.50
2018-12-30T06:03:38.061Z,3.60
2018-12-30T06:06:18.474Z,3.60
2018-12-30T06:08:59.074Z,3.60
2018-12-30T06:11:40.002Z,3.60
2018-12-30T06:20:17.797Z,3.60
2018-12-30T06:25:57.281Z,3.50
2018-12-30T06:28:38.075Z,3.50
2018-12-30T06:31:18.726Z,3.50
2018-12-30T06:33:59.860Z,3.50
2018-12-30T06:36:40.481Z,3.50
2018-12-30T06:39:20.947Z,3.50
2018-12-30T06:42:01.343Z,3.50
2018-12-30T06:44:41.786Z,3.50
2018-12-30T06:47:22.729Z,3.50
2018-12-30T06:50:03.618Z,3.50
2018-12-30T06:52:44.088Z,3.40
2018-12-30T06:55:24.382Z,3.40
2018-12-30T06:58:04.632Z,3.40
2018-12-30T07:00:45.583Z,3.40
2018-12-30T07:03:26.390Z,3.40
2018-12-30T07:06:07.242Z,3.40
2018-12-30T07:08:47.547Z,3.40
2018-12-30T07:11:28.538Z,3.40
2018-12-30T07:14:09.191Z,3.50
2018-12-30T07:16:50.077Z,3.40
2018-12-30T07:19:30.864Z,3.40
2018-12-30T07:25:23.821Z,3.40
2018-12-30T07:28:04.901Z,3.40
2018-12-30T07:30:45.915Z,3.50
2018-12-30T07:33:26.696Z,3.40
2018-12-30T07:36:07.350Z,3.40
2018-12-30T07:38:47.973Z,3.50
2018-12-30T07:41:28.785Z,3.50
2018-12-30T07:44:09.816Z,3.50
2018-12-30T07:46:50.803Z,3.60
2018-12-30T07:49:31.451Z,3.70
2018-12-30T07:55:25.357Z,3.60
2018-12-30T08:01:03.938Z,3.70
2018-12-30T08:03:44.402Z,3.70
2018-12-30T08:06:25.306Z,3.70
2018-12-30T08:09:06.155Z,3.70
2018-12-30T08:11:46.718Z,3.80
2018-12-30T08:14:27.318Z,3.60
2018-12-30T08:17:07.979Z,3.60
2018-12-30T08:19:48.743Z,3.70
2018-12-30T08:22:29.551Z,3.70
2018-12-30T08:28:09.105Z,3.70
2018-12-30T08:30:49.921Z,3.70
2018-12-30T08:33:30.843Z,3.80
2018-12-30T08:39:25.030Z,3.90
2018-12-30T08:45:18.636Z,3.90
2018-12-30T08:47:59.465Z,4.00
2018-12-30T08:50:40.151Z,4.00
2018-12-30T08:53:21.208Z,4.00
2018-12-30T08:56:01.873Z,4.10
2018-12-30T09:01:41.540Z,4.10
2018-12-30T09:04:22.306Z,4.10
2018-12-30T09:07:03.063Z,4.10
2018-12-30T09:09:44.363Z,4.20
2018-12-30T09:12:25.422Z,4.20
2018-12-30T09:15:06.381Z,4.30
2018-12-30T09:17:47.008Z,4.40
2018-12-30T09:20:27.612Z,4.40
2018-12-30T09:26:21.010Z,4.50
2018-12-30T09:29:01.550Z,4.50
2018-12-30T09:31:42.333Z,4.50
2018-12-30T09:34:23.078Z,4.60
2018-12-30T09:37:03.911Z,4.60
2018-12-30T09:39:44.770Z,4.60
2018-12-30T09:42:25.758Z,4.70
2018-12-30T09:45:06.645Z,4.70
2018-12-30T09:51:00.114Z,4.90
2018-12-30T09:53:45.079Z,5.00
2018-12-30T09:56:23.839Z,5.10
2018-12-30T10:02:16.955Z,5.20
2018-12-30T10:04:57.724Z,5.20
2018-12-30T10:07:38.233Z,5.20
2018-12-30T10:10:19.202Z,5.20
2018-12-30T10:13:00.142Z,5.20
2018-12-30T10:15:41.160Z,5.20
2018-12-30T10:21:34.018Z,5.20
2018-12-30T10:24:15.013Z,5.20
2018-12-30T10:26:56.298Z,5.20
2018-12-30T10:32:49.877Z,5.10
2018-12-30T10:35:30.384Z,4.90
2018-12-30T10:38:11.412Z,4.90
2018-12-30T10:40:52.208Z,4.90
2018-12-30T10:43:32.610Z,4.90
2018-12-30T10:55:08.018Z,5.00
2018-12-30T10:57:48.919Z,5.00
2018-12-30T11:00:29.670Z,5.00
2018-12-30T11:03:10.350Z,5.00
2018-12-30T11:05:51.014Z,5.10
2018-12-30T11:08:31.920Z,5.10
2018-12-30T11:11:12.769Z,5.10
2018-12-30T11:13:54.010Z,5.10
2018-12-30T11:16:34.718Z,5.10
2018-12-30T11:19:16.441Z,5.10
2018-12-30T11:21:57.635Z,5.20
2018-12-30T11:24:38.159Z,5.20
2018-12-30T11:27:19.722Z,5.10
2018-12-30T11:30:00.673Z,5.10
2018-12-30T11:32:41.606Z,5.10
2018-12-30T11:35:22.734Z,5.10
2018-12-30T11:38:03.382Z,5.10
2018-12-30T11:40:43.961Z,5.00
2018-12-30T11:43:24.670Z,4.90
2018-12-30T11:46:05.874Z,4.90
2018-12-30T11:48:46.513Z,4.90
2018-12-30T11:51:27.061Z,5.00
2018-12-30T11:54:08.002Z,5.00
2018-12-30T11:56:49.087Z,5.00
2018-12-30T12:02:41.434Z,5.10
2018-12-30T12:05:22.026Z,5.10
2018-12-30T12:08:03.177Z,5.10
2018-12-30T12:10:43.682Z,5.10
2018-12-30T12:13:24.314Z,5.10
2018-12-30T12:16:04.817Z,5.10
2018-12-30T12:21:44.486Z,5.10
2018-12-30T12:24:25.113Z,5.10
2018-12-30T12:27:05.591Z,5.10
2018-12-30T12:32:58.631Z,5.10
2018-12-30T12:35:39.666Z,5.10
2018-12-30T12:38:20.778Z,5.10
2018-12-30T12:41:01.099Z,5.10
2018-12-30T12:43:41.686Z,5.10
2018-12-30T12:46:22.625Z,5.10
2018-12-30T12:49:03.562Z,5.10
2018-12-30T12:54:42.819Z,5.00
2018-12-30T12:57:23.331Z,5.00
2018-12-30T13:00:04.038Z,5.00
2018-12-30T13:02:44.620Z,4.90
2018-12-30T13:05:25.644Z,4.90
2018-12-30T13:08:07.151Z,4.90
2018-12-30T13:10:47.555Z,4.90
2018-12-30T13:13:28.152Z,4.80
2018-12-30T13:16:09.241Z,4.80
2018-12-30T13:18:50.290Z,4.70
2018-12-30T13:21:31.125Z,4.60
2018-12-30T13:24:11.946Z,4.60
2018-12-30T13:26:52.990Z,4.50
2018-12-30T13:29:33.743Z,4.50
2018-12-30T13:32:14.530Z,4.40
2018-12-30T13:34:57.990Z,4.40
2018-12-30T13:37:38.950Z,4.40
2018-12-30T13:40:20.295Z,4.30
2018-12-30T13:43:01.450Z,4.30
2018-12-30T13:45:42.237Z,4.30
2018-12-30T13:48:23.218Z,4.30
2018-12-30T13:51:03.953Z,4.30
2018-12-30T13:53:44.268Z,4.30
2018-12-30T13:56:25.166Z,4.20
2018-12-30T13:59:05.806Z,4.10
2018-12-30T14:01:46.558Z,4.10
2018-12-30T14:04:27.042Z,4.10
2018-12-30T14:07:07.335Z,4.10
2018-12-30T14:09:48.126Z,4.10
2018-12-30T14:12:28.895Z,4.20
2018-12-30T14:15:09.640Z,4.20
2018-12-30T14:17:50.274Z,4.20
2018-12-30T14:20:31.402Z,4.20
2018-12-30T14:23:12.139Z,4.30
2018-12-30T14:25:53.127Z,4.20
2018-12-30T14:28:34.385Z,4.10
2018-12-30T14:31:14.656Z,4.10
2018-12-30T14:33:55.404Z,4.10
2018-12-30T14:36:36.084Z,4.00
2018-12-30T14:39:16.393Z,3.90
2018-12-30T14:41:57.542Z,4.00
2018-12-30T14:44:37.940Z,4.00
2018-12-30T14:47:18.642Z,3.90
2018-12-30T14:49:59.627Z,3.90
2018-12-30T14:52:40.297Z,3.90
2018-12-30T14:55:21.034Z,3.80
2018-12-30T14:58:01.675Z,3.80
2018-12-30T15:00:42.659Z,3.80
2018-12-30T15:03:22.839Z,3.80
2018-12-30T15:06:03.525Z,3.80
2018-12-30T15:08:44.146Z,3.80
2018-12-30T15:11:24.701Z,3.70
2018-12-30T15:14:05.669Z,3.80
2018-12-30T15:16:46.565Z,3.70
2018-12-30T15:19:27.578Z,3.70
2018-12-30T15:22:08.386Z,3.70
2018-12-30T15:24:49.310Z,3.70
2018-12-30T15:27:30.462Z,1.10
2018-12-30T15:30:10.802Z,3.70
2018-12-30T15:32:51.494Z,3.70
2018-12-30T15:35:32.196Z,3.70
2018-12-30T15:38:13.057Z,3.70
2018-12-30T15:40:53.615Z,3.70
2018-12-30T15:43:34.149Z,3.60
2018-12-30T15:46:15.026Z,3.60
2018-12-30T15:48:55.782Z,3.60
2018-12-30T15:51:36.410Z,3.60
2018-12-30T15:54:17.258Z,3.60
2018-12-30T15:56:58.298Z,3.60
2018-12-30T15:59:39.059Z,3.60
2018-12-30T16:02:19.749Z,3.60
2018-12-30T16:05:00.002Z,3.60
2018-12-30T16:07:41.010Z,3.50
2018-12-30T16:10:21.977Z,3.60
2018-12-30T16:13:02.782Z,3.60
2018-12-30T16:15:43.101Z,3.60
2018-12-30T16:18:23.781Z,3.60
2018-12-30T16:21:04.529Z,3.60
2018-12-30T16:23:45.492Z,3.60
2018-12-30T16:26:26.182Z,3.60
2018-12-30T16:29:06.562Z,3.40
2018-12-30T16:31:47.481Z,3.60
2018-12-30T16:34:28.616Z,3.60
2018-12-30T16:37:09.239Z,3.60
2018-12-30T16:39:50.319Z,3.60
2018-12-30T16:42:30.726Z,3.50
2018-12-30T16:45:11.749Z,3.40
2018-12-30T16:47:52.754Z,3.60
2018-12-30T16:50:33.398Z,3.60
2018-12-30T16:53:13.942Z,3.50
2018-12-30T16:55:54.788Z,3.60
2018-12-30T16:58:35.397Z,3.60
2018-12-30T17:01:16.107Z,3.60
2018-12-30T17:03:57.081Z,3.50
2018-12-30T17:06:37.934Z,3.50
2018-12-30T17:09:18.374Z,3.60
2018-12-30T17:11:59.301Z,3.40
2018-12-30T17:14:39.971Z,3.50
2018-12-30T17:17:20.706Z,3.50
2018-12-30T17:20:01.454Z,3.50
2018-12-30T17:22:42.174Z,3.50
2018-12-30T17:25:22.698Z,3.50
2018-12-30T17:28:02.917Z,3.50
2018-12-30T17:33:56.017Z,3.50
2018-12-30T17:36:36.841Z,3.50
2018-12-30T17:39:17.730Z,3.50
2018-12-30T17:41:58.634Z,3.50
2018-12-30T17:44:39.172Z,3.40
2018-12-30T17:47:19.769Z,3.50
2018-12-30T17:50:02.346Z,3.40
2018-12-30T17:52:42.934Z,3.40
2018-12-30T17:55:23.971Z,3.40
2018-12-30T17:58:04.973Z,3.40
2018-12-30T18:00:45.889Z,3.40
2018-12-30T18:03:26.745Z,3.40
2018-12-30T18:06:07.602Z,3.40
2018-12-30T18:08:48.393Z,3.40
2018-12-30T18:11:29.342Z,3.40
2018-12-30T18:14:09.818Z,3.30
2018-12-30T18:16:50.879Z,3.40
2018-12-30T18:19:31.387Z,3.40
2018-12-30T18:22:12.122Z,3.40
2018-12-30T18:24:52.854Z,3.40
2018-12-30T18:27:33.483Z,3.40
2018-12-30T18:30:14.258Z,3.40
2018-12-30T18:32:55.251Z,3.30
2018-12-30T18:35:35.505Z,3.40
2018-12-30T18:38:16.329Z,3.40
2018-12-30T18:40:57.121Z,3.40
2018-12-30T18:43:37.354Z,3.40
2018-12-30T18:46:18.138Z,3.30
2018-12-30T18:48:58.773Z,3.40
2018-12-30T18:51:39.197Z,3.40
2018-12-30T18:54:19.720Z,3.40
2018-12-30T18:56:59.862Z,3.40
2018-12-30T18:59:40.592Z,3.40
2018-12-30T19:02:21.183Z,3.40
2018-12-30T19:05:02.003Z,3.30
2018-12-30T19:07:43.018Z,3.30
2018-12-30T19:10:23.809Z,3.20
2018-12-30T19:13:04.552Z,3.30
2018-12-30T19:15:45.515Z,3.30
2018-12-30T19:18:26.468Z,3.30
2018-12-30T19:21:07.403Z,3.30
2018-12-30T19:23:47.993Z,3.30
2018-12-30T19:26:29.068Z,3.30
2018-12-30T19:29:10.127Z,3.20
2018-12-30T19:31:50.929Z,3.20
2018-12-30T19:34:31.863Z,3.30
2018-12-30T19:37:12.531Z,3.20
2018-12-30T19:39:53.302Z,3.20
2018-12-30T19:42:33.993Z,3.20
2018-12-30T19:45:14.638Z,3.20
2018-12-30T19:47:55.319Z,3.20
2018-12-30T19:50:35.894Z,3.20
2018-12-30T19:53:16.775Z,3.30
2018-12-30T19:58:55.926Z,3.20
2018-12-30T20:01:36.588Z,3.20
2018-12-30T20:04:17.289Z,3.30
2018-12-30T20:06:57.866Z,3.20
2018-12-30T20:09:38.967Z,3.40
2018-12-30T20:12:19.922Z,3.20
2018-12-30T20:15:00.910Z,3.30
2018-12-30T20:17:41.937Z,3.30
2018-12-30T20:29:03.890Z,3.20
2018-12-30T20:31:32.317Z,3.30
2018-12-30T20:34:00.770Z,3.20
2018-12-30T20:36:29.187Z,3.20
2018-12-30T20:38:58.549Z,3.20
2018-12-30T20:41:27.013Z,3.30
2018-12-30T20:43:55.428Z,3.20
2018-12-30T20:46:23.903Z,3.20
2018-12-30T20:51:20.422Z,3.20
2018-12-30T20:53:48.848Z,3.20
2018-12-30T21:01:13.742Z,3.20
2018-12-30T21:03:42.162Z,3.20
2018-12-30T21:06:10.600Z,3.20
2018-12-30T21:08:39.009Z,3.20
2018-12-30T21:11:07.440Z,3.20
2018-12-30T21:13:35.873Z,3.20
2018-12-30T21:16:04.292Z,3.20
2018-12-30T21:21:00.830Z,3.20
2018-12-30T21:23:29.258Z,3.20
2018-12-30T21:25:57.706Z,3.20
2018-12-30T21:30:54.241Z,3.20
2018-12-30T21:33:22.667Z,3.20
2018-12-30T21:35:51.098Z,3.20
2018-12-30T21:38:19.528Z,3.20
2018-12-30T21:40:47.969Z,3.20
2018-12-30T21:43:16.393Z,3.20
2018-12-30T21:45:44.826Z,3.20
2018-12-30T21:53:09.470Z,3.20
2018-12-30T22:00:34.348Z,3.10
2018-12-30T22:03:03.039Z,3.10
2018-12-30T22:05:31.472Z,3.10
2018-12-30T22:07:59.978Z,3.10
2018-12-30T22:10:28.410Z,3.10
2018-12-30T22:12:56.829Z,3.10
2018-12-30T22:30:14.199Z,3.10
2018-12-30T22:32:42.637Z,3.10
2018-12-30T22:35:11.060Z,3.10
2018-12-30T22:37:39.494Z,3.10
2018-12-30T22:40:08.492Z,3.10
2018-12-30T22:42:36.925Z,3.20
2018-12-30T22:59:54.185Z,3.20
2018-12-30T23:02:22.623Z,3.10
2018-12-30T23:04:51.322Z,3.10
2018-12-30T23:07:19.754Z,3.10
2018-12-30T23:09:48.183Z,3.10
2018-12-30T23:12:16.609Z,3.20
2018-12-30T23:24:37.418Z,3.20
2018-12-30T23:29:33.953Z,3.20
2018-12-30T23:32:02.381Z,3.20
2018-12-30T23:36:59.157Z,3.20
2018-12-30T23:39:27.749Z,3.20
2018-12-30T23:41:56.180Z,3.20
2018-12-30T23:46:52.722Z,3.30
2018-12-30T23:49:21.157Z,3.30
2018-12-30T23:51:49.614Z,3.30
2018-12-30T23:59:14.277Z,3.30
